createdAt,value
2023-04-08T00:01:41.608Z,15.23
2023-04-08T00:04:10.424Z,15.40
2023-04-08T00:06:39.071Z,16.07
2023-04-08T00:09:07.266Z,16.60
2023-04-08T00:11:35.901Z,14.07
2023-04-08T00:14:06.046Z,15.53
2023-04-08T00:16:34.819Z,16.97
2023-04-08T00:19:03.013Z,15.80
2023-04-08T00:21:31.579Z,16.70
2023-04-08T00:24:00.106Z,16.27
2023-04-08T00:26:28.096Z,16.70
2023-04-08T00:28:56.189Z,17.50
2023-04-08T00:31:26.304Z,18.60
2023-04-08T00:33:54.495Z,19.20
2023-04-08T00:36:22.582Z,19.80
2023-04-08T00:38:53.418Z,20.50
2023-04-08T00:41:22.051Z,23.87
2023-04-08T00:43:50.669Z,23.20
2023-04-08T00:46:18.828Z,21.60
2023-04-08T00:48:48.621Z,22.23
2023-04-08T00:51:17.208Z,24.50
2023-04-08T00:53:45.304Z,21.63
2023-04-08T00:56:13.336Z,22.20
2023-04-08T00:58:41.868Z,22.03
2023-04-08T01:01:15.808Z,22.63
2023-04-08T01:03:58.914Z,21.70
2023-04-08T01:06:32.368Z,23.00
2023-04-08T01:09:01.763Z,21.30
2023-04-08T01:11:33.744Z,19.20
2023-04-08T01:14:06.460Z,20.30
2023-04-08T01:16:35.691Z,20.43
2023-04-08T01:19:07.374Z,20.37
2023-04-08T01:21:38.326Z,18.70
2023-04-08T01:24:12.452Z,21.73
2023-04-08T01:26:42.408Z,18.73
2023-04-08T01:29:13.895Z,15.90
2023-04-08T01:31:43.825Z,15.40
2023-04-08T01:34:14.321Z,15.67
2023-04-08T01:36:45.482Z,14.60
2023-04-08T01:39:16.590Z,16.63
2023-04-08T01:41:48.322Z,16.30
2023-04-08T01:44:17.661Z,17.40
2023-04-08T01:46:46.299Z,15.70
2023-04-08T01:49:15.560Z,14.10
2023-04-08T01:51:47.494Z,15.00
2023-04-08T01:54:15.805Z,14.43
2023-04-08T01:56:47.727Z,14.03
2023-04-08T01:59:18.318Z,13.97
2023-04-08T02:01:48.220Z,13.10
2023-04-08T02:04:16.456Z,12.50
2023-04-08T02:06:46.842Z,15.50
2023-04-08T02:09:15.065Z,14.53
2023-04-08T02:11:43.130Z,12.43
2023-04-08T02:14:12.556Z,12.20
2023-04-08T02:16:47.724Z,13.13
2023-04-08T02:19:20.854Z,14.30
2023-04-08T02:21:56.401Z,11.77
2023-04-08T02:24:24.915Z,12.33
2023-04-08T02:26:56.172Z,14.70
2023-04-08T02:29:30.889Z,13.87
2023-04-08T02:32:00.096Z,13.27
2023-04-08T02:34:28.724Z,13.80
2023-04-08T02:36:56.892Z,13.70
2023-04-08T02:39:32.215Z,13.57
2023-04-08T02:42:00.353Z,13.63
2023-04-08T02:44:29.863Z,11.87
2023-04-08T02:47:02.622Z,13.83
2023-04-08T02:49:30.840Z,13.80
2023-04-08T02:51:58.967Z,13.67
2023-04-08T02:54:27.045Z,14.10
2023-04-08T02:56:55.193Z,12.50
2023-04-08T02:59:23.259Z,12.10
2023-04-08T03:01:52.804Z,13.00
2023-04-08T03:04:20.985Z,15.43
2023-04-08T03:06:49.536Z,15.53
2023-04-08T03:09:17.898Z,13.30
2023-04-08T03:11:46.124Z,14.60
2023-04-08T03:14:14.572Z,13.53
2023-04-08T03:16:42.743Z,14.33
2023-04-08T03:19:12.180Z,15.77
2023-04-08T03:21:40.585Z,12.87
2023-04-08T03:24:08.727Z,14.03
2023-04-08T03:26:37.037Z,14.30
2023-04-08T03:29:06.846Z,12.87
2023-04-08T03:31:35.267Z,13.93
2023-04-08T03:34:03.344Z,15.27
2023-04-08T03:36:32.724Z,12.90
2023-04-08T03:39:01.006Z,15.77
2023-04-08T03:41:29.120Z,14.53
2023-04-08T03:43:57.201Z,13.07
2023-04-08T03:46:25.368Z,17.10
2023-04-08T03:48:53.555Z,15.07
2023-04-08T03:51:21.689Z,15.90
2023-04-08T03:53:51.188Z,17.17
2023-04-08T03:56:19.236Z,15.83
2023-04-08T03:58:47.323Z,17.87
2023-04-08T04:01:15.549Z,15.50
2023-04-08T04:03:43.712Z,14.30
2023-04-08T04:06:11.832Z,17.13
2023-04-08T04:08:39.974Z,17.00
2023-04-08T04:11:09.456Z,14.87
2023-04-08T04:13:37.803Z,17.13
2023-04-08T04:16:06.560Z,16.77
2023-04-08T04:18:34.822Z,16.67
2023-04-08T04:21:06.758Z,15.90
2023-04-08T04:23:35.257Z,16.93
2023-04-08T04:26:03.397Z,17.50
2023-04-08T04:28:32.879Z,17.30
2023-04-08T04:31:01.082Z,18.53
2023-04-08T04:33:29.412Z,17.23
2023-04-08T04:35:57.575Z,17.43
2023-04-08T04:38:25.725Z,18.10
2023-04-08T04:40:53.803Z,17.37
2023-04-08T04:43:22.004Z,17.70
2023-04-08T04:45:51.615Z,19.07
2023-04-08T04:48:19.725Z,18.10
2023-04-08T04:50:56.361Z,23.97
2023-04-08T04:53:24.787Z,19.43
2023-04-08T04:55:52.861Z,18.50
2023-04-08T04:58:20.875Z,17.60
2023-04-08T05:00:48.989Z,21.57
2023-04-08T05:03:18.537Z,21.33
2023-04-08T05:05:46.671Z,18.40
2023-04-08T05:08:14.927Z,19.63
2023-04-08T05:10:43.003Z,21.47
2023-04-08T05:13:11.153Z,20.07
2023-04-08T05:15:39.484Z,21.83
2023-04-08T05:18:07.791Z,25.00
2023-04-08T05:20:37.196Z,22.40
2023-04-08T05:23:05.303Z,27.77
2023-04-08T05:25:33.278Z,22.20
2023-04-08T05:28:01.386Z,24.93
2023-04-08T05:30:29.451Z,25.77
2023-04-08T05:33:00.126Z,26.23
2023-04-08T05:35:28.874Z,26.33
2023-04-08T05:37:58.322Z,30.17
2023-04-08T05:40:26.862Z,27.17
2023-04-08T05:42:54.923Z,30.50
2023-04-08T05:45:23.003Z,29.43
2023-04-08T05:47:51.051Z,26.80
2023-04-08T05:50:19.261Z,28.47
2023-04-08T05:52:47.378Z,26.83
2023-04-08T05:55:16.836Z,25.90
2023-04-08T05:57:44.830Z,27.33
2023-04-08T06:00:13.518Z,27.50
2023-04-08T06:02:41.909Z,26.80
2023-04-08T06:05:10.915Z,27.87
2023-04-08T06:07:39.107Z,25.50
2023-04-08T06:10:08.944Z,27.60
2023-04-08T06:12:39.499Z,27.17
2023-04-08T06:15:08.858Z,29.23
2023-04-08T06:17:37.843Z,25.80
2023-04-08T06:20:07.362Z,25.77
2023-04-08T06:22:35.357Z,26.40
2023-04-08T06:25:03.598Z,24.50
2023-04-08T06:27:31.628Z,29.47
2023-04-08T06:30:01.017Z,26.80
2023-04-08T06:32:29.159Z,25.20
2023-04-08T06:34:57.266Z,29.10
2023-04-08T06:37:25.378Z,25.70
2023-04-08T06:39:53.379Z,26.57
2023-04-08T06:42:23.020Z,27.97
2023-04-08T06:45:11.950Z,22.17
2023-04-08T06:47:40.748Z,24.60
2023-04-08T06:50:09.835Z,27.43
2023-04-08T06:52:38.173Z,27.47
2023-04-08T06:55:07.479Z,27.77
2023-04-08T06:57:35.647Z,26.07
2023-04-08T07:00:03.814Z,21.57
2023-04-08T07:02:33.347Z,23.77
2023-04-08T07:05:01.568Z,27.33
2023-04-08T07:07:29.689Z,24.87
2023-04-08T07:09:57.972Z,24.67
2023-04-08T07:12:26.101Z,27.63
2023-04-08T07:14:54.240Z,28.30
2023-04-08T07:17:22.441Z,26.13
2023-04-08T07:19:51.848Z,28.40
2023-04-08T07:22:19.886Z,27.00
2023-04-08T07:24:49.855Z,27.20
2023-04-08T07:27:18.791Z,22.93
2023-04-08T07:29:46.828Z,25.67
2023-04-08T07:32:15.248Z,24.03
2023-04-08T07:34:43.283Z,24.37
2023-04-08T07:37:12.779Z,24.07
2023-04-08T07:39:40.868Z,22.73
2023-04-08T07:42:09.157Z,22.27
2023-04-08T07:44:38.218Z,17.20
2023-04-08T07:47:06.513Z,19.57
2023-04-08T07:49:34.524Z,21.13
2023-04-08T07:52:02.560Z,18.80
2023-04-08T07:54:34.303Z,18.60
2023-04-08T07:57:02.611Z,20.07
2023-04-08T07:59:30.867Z,19.47
2023-04-08T08:01:58.881Z,20.10
2023-04-08T08:04:31.294Z,18.37
2023-04-08T08:07:04.089Z,18.00
2023-04-08T08:09:42.979Z,17.70
2023-04-08T08:12:12.987Z,20.60
2023-04-08T08:14:42.660Z,17.13
2023-04-08T08:17:13.513Z,19.97
2023-04-08T08:20:23.318Z,21.03
2023-04-08T08:22:57.280Z,21.47
2023-04-08T08:25:27.127Z,19.73
2023-04-08T08:27:55.483Z,20.90
2023-04-08T08:30:23.714Z,21.60
2023-04-08T08:32:52.235Z,22.83
2023-04-08T08:35:20.330Z,21.87
2023-04-08T08:37:48.952Z,23.20
2023-04-08T08:40:17.148Z,24.40
2023-04-08T08:42:52.997Z,23.87
2023-04-08T08:45:21.423Z,23.70
2023-04-08T08:47:51.236Z,22.20
2023-04-08T08:50:19.856Z,18.00
2023-04-08T08:52:50.717Z,21.40
2023-04-08T08:55:35.070Z,19.23
2023-04-08T08:58:10.072Z,21.03
2023-04-08T09:00:39.365Z,20.73
2023-04-08T09:03:18.484Z,17.67
2023-04-08T09:05:52.066Z,17.63
2023-04-08T09:08:29.421Z,18.20
2023-04-08T09:11:07.715Z,15.87
2023-04-08T09:13:38.023Z,19.17
2023-04-08T09:16:09.080Z,17.43
2023-04-08T09:18:37.979Z,17.73
2023-04-08T09:21:07.696Z,19.03
2023-04-08T09:23:43.854Z,19.30
2023-04-08T09:26:13.399Z,18.13
2023-04-08T09:28:44.197Z,20.33
2023-04-08T09:31:23.067Z,17.53
2023-04-08T09:33:52.284Z,18.07
2023-04-08T09:36:20.916Z,20.30
2023-04-08T09:38:49.114Z,19.27
2023-04-08T09:41:18.521Z,17.90
2023-04-08T09:43:50.683Z,17.30
2023-04-08T09:46:23.389Z,19.70
2023-04-08T09:48:56.205Z,19.80
2023-04-08T09:51:26.628Z,19.40
2023-04-08T09:54:01.703Z,21.80
2023-04-08T09:56:40.786Z,20.77
2023-04-08T09:59:17.399Z,22.37
2023-04-08T10:01:51.356Z,19.03
2023-04-08T10:04:22.320Z,23.10
2023-04-08T10:06:55.447Z,22.00
2023-04-08T10:09:23.950Z,21.60
2023-04-08T10:11:52.016Z,24.30
2023-04-08T10:14:22.167Z,20.80
2023-04-08T10:16:50.423Z,21.27
2023-04-08T10:19:38.615Z,23.80
2023-04-08T10:22:46.682Z,20.90
2023-04-08T10:25:31.859Z,20.30
2023-04-08T10:28:00.352Z,24.30
2023-04-08T10:30:43.273Z,21.03
2023-04-08T10:33:13.276Z,24.47
2023-04-08T10:35:43.602Z,21.27
2023-04-08T10:38:13.296Z,24.73
2023-04-08T10:40:42.880Z,22.60
2023-04-08T10:43:11.437Z,25.37
2023-04-08T10:45:39.862Z,22.33
2023-04-08T10:48:17.766Z,22.37
2023-04-08T10:50:53.060Z,21.93
2023-04-08T10:53:26.688Z,22.33
2023-04-08T10:55:54.897Z,27.20
2023-04-08T10:58:22.900Z,23.97
2023-04-08T11:00:51.316Z,25.37
2023-04-08T11:03:21.050Z,24.13
2023-04-08T11:05:51.702Z,23.60
2023-04-08T11:08:21.053Z,26.97
2023-04-08T11:10:49.796Z,26.97
2023-04-08T11:13:18.006Z,24.77
2023-04-08T11:15:46.101Z,27.13
2023-04-08T11:18:14.614Z,25.10
2023-04-08T11:20:45.949Z,27.13
2023-04-08T11:23:15.112Z,22.93
2023-04-08T11:25:44.100Z,25.53
2023-04-08T11:28:12.970Z,24.77
2023-04-08T11:30:42.084Z,22.70
2023-04-08T11:33:10.897Z,27.50
2023-04-08T11:35:43.434Z,26.97
2023-04-08T11:38:12.128Z,20.60
2023-04-08T11:40:40.447Z,23.37
2023-04-08T11:43:12.483Z,24.43
2023-04-08T11:45:41.628Z,24.07
2023-04-08T11:48:11.402Z,23.03
2023-04-08T11:50:39.603Z,23.60
2023-04-08T11:53:20.426Z,24.83
2023-04-08T11:55:49.503Z,21.67
2023-04-08T11:58:17.786Z,22.10
2023-04-08T12:00:46.608Z,23.50
2023-04-08T12:03:14.991Z,20.30
2023-04-08T12:05:43.561Z,21.60
2023-04-08T12:08:11.661Z,18.53
2023-04-08T12:10:41.224Z,16.27
2023-04-08T12:13:09.206Z,16.77
2023-04-08T12:15:37.799Z,17.93
2023-04-08T12:18:06.307Z,21.07
2023-04-08T12:20:34.328Z,18.90
2023-04-08T12:23:02.364Z,18.60
2023-04-08T12:25:31.324Z,19.37
2023-04-08T12:28:00.716Z,21.97
2023-04-08T12:30:28.782Z,19.43
2023-04-08T12:32:57.784Z,18.80
2023-04-08T12:35:26.241Z,20.30
2023-04-08T12:37:54.341Z,18.27
2023-04-08T12:40:22.334Z,19.10
2023-04-08T12:42:51.124Z,21.57
2023-04-08T12:45:20.472Z,20.97
2023-04-08T12:47:48.676Z,19.07
2023-04-08T12:50:17.345Z,19.40
2023-04-08T12:52:45.339Z,17.63
2023-04-08T12:55:13.403Z,15.53
2023-04-08T12:57:41.442Z,16.07
2023-04-08T13:00:11.284Z,17.57
2023-04-08T13:02:42.176Z,17.23
2023-04-08T13:05:10.771Z,17.40
2023-04-08T13:07:38.865Z,19.63
2023-04-08T13:10:08.389Z,14.83
2023-04-08T13:12:38.879Z,18.13
2023-04-08T13:15:08.032Z,17.40
2023-04-08T13:17:36.075Z,18.50
2023-04-08T13:20:06.620Z,15.93
2023-04-08T13:22:34.620Z,17.20
2023-04-08T13:25:02.844Z,16.33
2023-04-08T13:27:30.914Z,16.43
2023-04-08T13:29:59.004Z,16.53
2023-04-08T13:32:27.036Z,17.70
2023-04-08T13:34:55.122Z,18.47
2023-04-08T13:37:24.539Z,17.30
2023-04-08T13:39:52.596Z,15.53
2023-04-08T13:42:20.643Z,18.43
2023-04-08T13:44:48.700Z,18.33
2023-04-08T13:47:17.275Z,20.00
2023-04-08T13:49:45.393Z,18.17
2023-04-08T13:52:13.407Z,21.17
2023-04-08T13:54:42.873Z,18.73
2023-04-08T13:57:10.894Z,19.30
2023-04-08T13:59:39.072Z,19.20
2023-04-08T14:02:07.466Z,19.37
2023-04-08T14:04:35.656Z,18.97
2023-04-08T14:07:03.951Z,20.50
2023-04-08T14:09:32.039Z,19.53
2023-04-08T14:12:01.469Z,17.57
2023-04-08T14:14:29.512Z,19.33
2023-04-08T14:16:57.660Z,15.90
2023-04-08T14:19:25.885Z,17.67
2023-04-08T14:21:53.933Z,18.33
2023-04-08T14:24:21.927Z,18.40
2023-04-08T14:26:49.995Z,16.33
2023-04-08T14:29:19.481Z,19.90
2023-04-08T14:31:47.528Z,16.43
2023-04-08T14:34:15.591Z,18.93
2023-04-08T14:36:43.647Z,19.83
2023-04-08T14:39:12.194Z,20.30
2023-04-08T14:41:40.688Z,32.20
2023-04-08T14:44:08.686Z,19.53
2023-04-08T14:46:38.396Z,20.80
2023-04-08T14:49:07.102Z,19.47
2023-04-08T14:51:37.884Z,18.30
2023-04-08T14:54:06.212Z,18.73
2023-04-08T14:56:34.342Z,20.80
2023-04-08T14:59:02.280Z,20.03
2023-04-08T15:01:32.150Z,18.63
2023-04-08T15:04:01.763Z,18.50
2023-04-08T15:06:30.942Z,18.67
2023-04-08T15:08:58.995Z,19.20
2023-04-08T15:11:27.078Z,19.90
2023-04-08T15:13:55.282Z,20.57
2023-04-08T15:16:23.382Z,19.63
2023-04-08T15:18:51.695Z,21.67
2023-04-08T15:21:22.812Z,21.83
2023-04-08T15:23:50.977Z,19.60
2023-04-08T15:26:19.163Z,22.13
2023-04-08T15:28:47.411Z,17.57
2023-04-08T15:31:15.865Z,19.80
2023-04-08T15:33:46.534Z,18.87
2023-04-08T15:36:19.822Z,18.57
2023-04-08T15:38:49.606Z,22.67
2023-04-08T15:41:19.147Z,20.43
2023-04-08T15:43:47.635Z,26.80
2023-04-08T15:46:19.381Z,19.47
2023-04-08T15:48:47.651Z,22.20
2023-04-08T15:51:16.776Z,43.10
2023-04-08T15:53:44.850Z,22.30
2023-04-08T15:56:18.063Z,23.67
2023-04-08T15:58:46.807Z,25.37
2023-04-08T16:01:15.308Z,20.37
2023-04-08T16:03:43.477Z,21.57
2023-04-08T16:06:11.589Z,21.73
2023-04-08T16:08:40.482Z,17.90
2023-04-08T16:11:08.769Z,17.30
2023-04-08T16:13:39.140Z,17.43
2023-04-08T16:16:08.771Z,16.53
2023-04-08T16:18:36.964Z,15.93
2023-04-08T16:21:06.598Z,15.50
2023-04-08T16:23:37.450Z,15.17
2023-04-08T16:26:07.892Z,16.83
2023-04-08T16:28:39.544Z,15.10
2023-04-08T16:31:07.931Z,16.20
2023-04-08T16:33:36.696Z,19.13
2023-04-08T16:36:05.184Z,19.23
2023-04-08T16:38:34.026Z,23.47
2023-04-08T16:41:04.285Z,20.23
2023-04-08T16:43:32.335Z,24.43
2023-04-08T16:46:09.668Z,25.17
2023-04-08T16:48:39.098Z,21.47
2023-04-08T16:51:07.469Z,24.07
2023-04-08T16:53:35.803Z,20.60
2023-04-08T16:56:03.815Z,17.80
2023-04-08T16:58:31.931Z,21.93
2023-04-08T17:01:01.574Z,19.20
2023-04-08T17:03:29.661Z,23.47
2023-04-08T17:06:07.300Z,26.67
2023-04-08T17:08:35.392Z,23.63
2023-04-08T17:11:07.997Z,20.63
2023-04-08T17:13:36.139Z,20.67
2023-04-08T17:16:07.072Z,20.20
2023-04-08T17:18:35.362Z,24.30
2023-04-08T17:21:03.451Z,20.80
2023-04-08T17:23:31.418Z,20.83
2023-04-08T17:25:59.431Z,21.70
2023-04-08T17:28:27.483Z,23.37
2023-04-08T17:30:55.672Z,19.60
2023-04-08T17:33:25.034Z,21.30
2023-04-08T17:35:53.516Z,20.70
2023-04-08T17:38:21.748Z,21.03
2023-04-08T17:40:49.872Z,21.60
2023-04-08T17:43:18.024Z,20.93
2023-04-08T17:45:46.825Z,20.63
2023-04-08T17:48:15.164Z,21.50
2023-04-08T17:50:44.521Z,18.20
2023-04-08T17:53:13.037Z,21.53
2023-04-08T17:55:41.109Z,20.67
2023-04-08T17:58:09.073Z,19.93
2023-04-08T18:00:37.086Z,19.33
2023-04-08T18:03:05.941Z,18.90
2023-04-08T18:05:34.056Z,22.67
2023-04-08T18:08:03.418Z,21.70
2023-04-08T18:10:31.480Z,22.90
2023-04-08T18:13:11.394Z,24.23
2023-04-08T18:15:40.309Z,22.83
2023-04-08T18:18:08.346Z,22.77
2023-04-08T18:20:36.977Z,30.03
2023-04-08T18:23:06.370Z,32.37
2023-04-08T18:25:34.933Z,37.17
2023-04-08T18:28:02.927Z,28.10
2023-04-08T18:30:31.121Z,36.80
2023-04-08T18:32:59.135Z,26.70
2023-04-08T18:35:27.246Z,26.10
2023-04-08T18:37:56.434Z,36.53
2023-04-08T18:40:25.973Z,24.23
2023-04-08T18:42:54.079Z,22.63
2023-04-08T18:45:22.055Z,21.30
2023-04-08T18:47:50.289Z,24.03
2023-04-08T18:50:18.939Z,22.80
2023-04-08T18:52:47.628Z,21.53
2023-04-08T18:55:15.717Z,19.13
2023-04-08T18:57:45.084Z,21.07
2023-04-08T19:00:13.643Z,20.13
2023-04-08T19:02:41.797Z,18.57
2023-04-08T19:05:10.407Z,23.70
2023-04-08T19:07:38.721Z,21.13
2023-04-08T19:10:08.064Z,22.87
2023-04-08T19:12:36.141Z,18.27
2023-04-08T19:15:06.326Z,22.87
2023-04-08T19:17:34.400Z,27.00
2023-04-08T19:20:03.135Z,42.43
2023-04-08T19:22:32.100Z,33.40
2023-04-08T19:25:00.252Z,22.20
2023-04-08T19:27:28.183Z,23.23
2023-04-08T19:29:56.239Z,23.87
2023-04-08T19:32:26.395Z,21.53
2023-04-08T19:34:54.431Z,19.70
2023-04-08T19:37:22.417Z,18.77
2023-04-08T19:39:50.576Z,19.20
2023-04-08T19:42:19.385Z,20.03
2023-04-08T19:44:48.722Z,19.60
2023-04-08T19:47:17.555Z,17.43
2023-04-08T19:49:47.066Z,16.70
2023-04-08T19:52:15.344Z,16.30
2023-04-08T19:54:44.046Z,16.23
2023-04-08T19:57:12.278Z,15.63
2023-04-08T19:59:40.334Z,16.47
2023-04-08T20:02:08.722Z,14.27
2023-04-08T20:04:36.854Z,13.47
2023-04-08T20:07:06.332Z,11.83
2023-04-08T20:09:34.394Z,14.43
2023-04-08T20:12:04.769Z,14.33
2023-04-08T20:14:33.587Z,12.87
2023-04-08T20:17:02.167Z,12.57
2023-04-08T20:19:30.196Z,12.70
2023-04-08T20:21:58.333Z,14.93
2023-04-08T20:24:28.016Z,11.83
2023-04-08T20:26:56.152Z,11.97
2023-04-08T20:29:24.220Z,12.40
2023-04-08T20:31:52.304Z,11.43
2023-04-08T20:34:20.422Z,10.93
2023-04-08T20:36:48.565Z,9.33
2023-04-08T20:39:16.687Z,9.67
2023-04-08T20:41:46.518Z,10.53
2023-04-08T20:44:14.572Z,10.10
2023-04-08T20:46:42.762Z,9.90
2023-04-08T20:49:11.126Z,11.90
2023-04-08T20:51:39.430Z,10.67
2023-04-08T20:54:07.468Z,10.53
2023-04-08T20:56:35.935Z,11.57
2023-04-08T20:59:05.558Z,10.13
2023-04-08T21:01:33.775Z,10.70
2023-04-08T21:04:03.054Z,10.50
2023-04-08T21:06:31.552Z,9.93
2023-04-08T21:08:59.550Z,10.27
2023-04-08T21:11:28.460Z,10.30
2023-04-08T21:13:56.530Z,10.93
2023-04-08T21:16:25.902Z,9.73
2023-04-08T21:18:54.051Z,12.47
2023-04-08T21:21:22.126Z,10.60
2023-04-08T21:23:50.282Z,12.63
2023-04-08T21:26:18.564Z,12.60
2023-04-08T21:28:46.637Z,9.33
2023-04-08T21:31:14.847Z,9.63
2023-04-08T21:33:44.290Z,9.47
2023-04-08T21:36:12.396Z,8.97
2023-04-08T21:38:40.424Z,10.00
2023-04-08T21:41:08.551Z,9.20
2023-04-08T21:43:36.701Z,10.00
2023-04-08T21:46:04.951Z,10.03
2023-04-08T21:48:32.997Z,10.20
2023-04-08T21:51:02.480Z,9.70
2023-04-08T21:53:30.665Z,9.67
2023-04-08T21:55:58.682Z,10.10
2023-04-08T21:58:28.105Z,11.37
2023-04-08T22:00:56.290Z,9.83
2023-04-08T22:03:24.452Z,12.33
2023-04-08T22:05:52.505Z,10.63
2023-04-08T22:08:23.033Z,12.27
2023-04-08T22:10:51.725Z,10.77
2023-04-08T22:13:20.571Z,11.30
2023-04-08T22:15:48.579Z,11.30
2023-04-08T22:18:16.677Z,11.87
2023-04-08T22:20:44.675Z,10.60
2023-04-08T22:23:12.729Z,12.00
2023-04-08T22:25:42.084Z,10.40
2023-04-08T22:28:10.247Z,12.03
2023-04-08T22:30:38.238Z,11.43
2023-04-08T22:33:06.313Z,10.77
2023-04-08T22:35:34.315Z,11.43
2023-04-08T22:38:02.735Z,11.47
2023-04-08T22:40:30.839Z,11.17
2023-04-08T22:43:00.307Z,10.17
2023-04-08T22:45:28.295Z,11.00
2023-04-08T22:47:56.309Z,11.00
2023-04-08T22:50:24.362Z,11.60
2023-04-08T22:52:52.462Z,9.57
2023-04-08T22:55:20.608Z,10.73
2023-04-08T22:57:48.601Z,11.70
2023-04-08T23:00:18.307Z,10.80
2023-04-08T23:02:46.907Z,10.70
2023-04-08T23:05:14.963Z,11.20
2023-04-08T23:07:43.088Z,12.07
2023-04-08T23:10:11.693Z,12.07
2023-04-08T23:12:39.740Z,11.10
2023-04-08T23:15:08.606Z,11.10
2023-04-08T23:17:38.009Z,14.70
2023-04-08T23:20:07.211Z,14.47
2023-04-08T23:22:35.210Z,13.73
2023-04-08T23:25:03.663Z,12.20
2023-04-08T23:27:31.753Z,13.03
2023-04-08T23:30:05.310Z,13.27
2023-04-08T23:32:33.490Z,13.60
2023-04-08T23:35:03.441Z,13.30
2023-04-08T23:37:31.459Z,12.90
2023-04-08T23:39:59.467Z,15.73
2023-04-08T23:42:27.618Z,13.83
2023-04-08T23:44:55.805Z,13.67
2023-04-08T23:47:23.938Z,14.80
2023-04-08T23:49:52.269Z,12.40
2023-04-08T23:52:21.654Z,13.20
2023-04-08T23:54:51.256Z,16.07
2023-04-08T23:57:20.290Z,14.50
2023-04-08T23:59:48.403Z,21.33
